Time;durP1;ratioP1;P1;durP2;ratioP2;P2;SDS_P1;SDS_P2;PMS_P1;PMS_P2;Temp;Humidity;BMP_temperature;BMP_pressure;BME280_temperature;BME280_humidity;BME280_pressure;Samples;Min_cycle;Max_cycle;Signal;HPM_P1;HPM_P2
2023/03/21 00:01:40;;;;;;;33.83;12.05;;;;;;;;;;6378923;22;19998;-95
2023/03/21 00:04:10;;;;;;;40.15;11.65;;;;;;;;;;6379646;22;20002;-96
2023/03/21 00:06:37;;;;;;;40.00;12.30;;;;;;;;;;6379505;22;20055;-94
2023/03/21 00:09:03;;;;;;;36.70;12.23;;;;;;;;;;6354207;22;20009;-95
2023/03/21 00:11:32;;;;;;;30.60;11.40;;;;;;;;;;6352584;22;20439;-95
2023/03/21 00:14:01;;;;;;;37.95;11.32;;;;;;;;;;6353474;22;20177;-95
2023/03/21 00:16:29;;;;;;;35.58;10.90;;;;;;;;;;6354263;22;20013;-94
2023/03/21 00:18:56;;;;;;;14.75;6.03;;;;;;;;;;6379087;22;20080;-95
2023/03/21 00:21:31;;;;;;;41.53;12.45;;;;;;;;;;6379082;22;20077;-95
2023/03/21 00:23:57;;;;;;;21.05;9.40;;;;;;;;;;6379924;22;19998;-95
2023/03/21 00:26:24;;;;;;;33.47;10.45;;;;;;;;;;6379449;22;20014;-94
2023/03/21 00:28:50;;;;;;;35.80;11.85;;;;;;;;;;6353420;22;20058;-95
2023/03/21 00:31:17;;;;;;;40.60;11.77;;;;;;;;;;6380502;22;20006;-96
2023/03/21 00:33:54;;;;;;;28.67;11.32;;;;;;;;;;6379822;22;20010;-95
2023/03/21 00:36:24;;;;;;;31.60;9.95;;;;;;;;;;6353277;22;20014;-95
2023/03/21 00:38:51;;;;;;;25.27;10.15;;;;;;;;;;6374925;22;20010;-95
2023/03/21 00:41:17;;;;;;;29.92;10.88;;;;;;;;;;6375075;22;20282;-95
2023/03/21 00:43:43;;;;;;;38.28;10.50;;;;;;;;;;6348519;22;20490;-95
2023/03/21 00:46:10;;;;;;;37.47;11.73;;;;;;;;;;6349006;22;20010;-95
2023/03/21 00:48:36;;;;;;;35.92;11.30;;;;;;;;;;6349200;22;20029;-96
2023/03/21 00:51:02;;;;;;;27.38;9.13;;;;;;;;;;6347611;22;20007;-95
2023/03/21 00:53:30;;;;;;;38.45;11.35;;;;;;;;;;6376029;22;20018;-96
2023/03/21 00:55:56;;;;;;;36.53;11.02;;;;;;;;;;6349634;22;20018;-96
2023/03/21 00:58:22;;;;;;;49.80;13.43;;;;;;;;;;6350322;22;20034;-96
2023/03/21 01:00:49;;;;;;;43.70;12.43;;;;;;;;;;6349122;22;20007;-96
2023/03/21 01:03:16;;;;;;;71.18;15.10;;;;;;;;;;6376989;22;20002;-95
2023/03/21 01:06:05;;;;;;;82.90;17.13;;;;;;;;;;6351541;22;20444;-94
2023/03/21 01:08:38;;;;;;;54.45;12.25;;;;;;;;;;6380313;22;20003;-95
2023/03/21 01:11:06;;;;;;;78.32;17.95;;;;;;;;;;6377352;22;20392;-96
2023/03/21 01:13:33;;;;;;;105.65;18.38;;;;;;;;;;6378157;22;20343;-95
2023/03/21 01:15:59;;;;;;;14.73;6.03;;;;;;;;;;6351900;22;20007;-96
2023/03/21 01:18:27;;;;;;;87.72;18.60;;;;;;;;;;6377031;22;20009;-96
2023/03/21 01:20:54;;;;;;;103.82;18.88;;;;;;;;;;6375569;22;20079;-96
2023/03/21 01:23:20;;;;;;;112.03;22.05;;;;;;;;;;6375159;22;20002;-95
2023/03/21 01:25:47;;;;;;;112.32;20.55;;;;;;;;;;6375004;22;20025;-96
2023/03/21 01:28:14;;;;;;;119.50;24.25;;;;;;;;;;6375198;22;20388;-96
2023/03/21 01:30:44;;;;;;;103.93;21.92;;;;;;;;;;6349949;22;20007;-95
2023/03/21 01:33:11;;;;;;;114.22;23.63;;;;;;;;;;6375390;22;20049;-96
2023/03/21 01:35:39;;;;;;;115.60;20.67;;;;;;;;;;6347896;22;20348;-96
2023/03/21 01:38:12;;;;;;;102.03;21.35;;;;;;;;;;6350904;22;20096;-95
2023/03/21 01:40:38;;;;;;;126.95;24.60;;;;;;;;;;6349723;22;20030;-96
2023/03/21 01:43:04;;;;;;;109.57;21.35;;;;;;;;;;6374053;22;20003;-96
2023/03/21 01:45:50;;;;;;;52.92;12.82;;;;;;;;;;6373286;22;20306;-96
2023/03/21 01:48:17;;;;;;;92.78;19.98;;;;;;;;;;6374495;22;20429;-95
2023/03/21 01:50:43;;;;;;;85.32;19.98;;;;;;;;;;6349298;22;20101;-96
2023/03/21 01:53:13;;;;;;;83.70;18.52;;;;;;;;;;6348835;22;20039;-96
2023/03/21 01:55:40;;;;;;;78.35;18.08;;;;;;;;;;6375684;22;20089;-95
2023/03/21 01:58:08;;;;;;;84.60;17.67;;;;;;;;;;6349569;22;20006;-95
2023/03/21 02:00:35;;;;;;;53.33;12.80;;;;;;;;;;6375851;22;20006;-96
2023/03/21 02:03:03;;;;;;;57.42;13.73;;;;;;;;;;6374378;22;20425;-96
2023/03/21 02:05:37;;;;;;;48.67;10.70;;;;;;;;;;6374752;22;20002;-96
2023/03/21 02:08:04;;;;;;;49.70;14.02;;;;;;;;;;6374787;22;20078;-95
2023/03/21 02:10:31;;;;;;;66.13;15.40;;;;;;;;;;6374467;22;20020;-95
2023/03/21 02:13:08;;;;;;;75.50;17.73;;;;;;;;;;6375359;22;20006;-95
2023/03/21 02:15:38;;;;;;;34.58;9.25;;;;;;;;;;6376041;22;20215;-96
2023/03/21 02:18:10;;;;;;;74.00;15.40;;;;;;;;;;6376756;22;20052;-95
2023/03/21 02:20:37;;;;;;;69.72;17.65;;;;;;;;;;6377133;22;20026;-96
2023/03/21 02:23:03;;;;;;;72.00;17.38;;;;;;;;;;6378881;22;20003;-95
2023/03/21 02:25:42;;;;;;;65.18;16.23;;;;;;;;;;6381609;22;19998;-95
2023/03/21 02:28:08;;;;;;;71.70;17.67;;;;;;;;;;6385617;22;19997;-95
2023/03/21 02:30:49;;;;;;;84.47;18.60;;;;;;;;;;6394712;22;20053;-94
2023/03/21 02:33:18;;;;;;;79.07;20.35;;;;;;;;;;6396008;22;20472;-96
2023/03/21 02:35:45;;;;;;;89.18;18.83;;;;;;;;;;6394668;22;19994;-96
2023/03/21 02:38:11;;;;;;;65.25;18.02;;;;;;;;;;6395043;22;19998;-95
2023/03/21 02:40:40;;;;;;;72.93;19.05;;;;;;;;;;6392324;22;19991;-95
2023/03/21 02:43:18;;;;;;;56.42;14.27;;;;;;;;;;6383213;22;20004;-96
2023/03/21 02:45:50;;;;;;;69.80;18.85;;;;;;;;;;6380600;22;20035;-95
2023/03/21 02:48:23;;;;;;;68.82;17.77;;;;;;;;;;6375801;22;20313;-96
2023/03/21 02:50:54;;;;;;;79.80;17.67;;;;;;;;;;6373867;22;20077;-95
2023/03/21 02:53:25;;;;;;;74.93;18.90;;;;;;;;;;6348004;22;20007;-95
2023/03/21 02:55:56;;;;;;;51.90;15.48;;;;;;;;;;6375767;22;20005;-95
2023/03/21 02:58:23;;;;;;;56.00;16.27;;;;;;;;;;6374744;22;20468;-95
2023/03/21 03:00:54;;;;;;;75.20;17.40;;;;;;;;;;6374081;22;19998;-95
2023/03/21 03:03:20;;;;;;;66.53;18.95;;;;;;;;;;6373783;22;20075;-94
2023/03/21 03:05:57;;;;;;;65.20;17.45;;;;;;;;;;6347290;22;20010;-95
2023/03/21 03:08:42;;;;;;;60.17;17.70;;;;;;;;;;6372524;22;20085;-95
2023/03/21 03:11:08;;;;;;;64.75;19.42;;;;;;;;;;6373611;22;20006;-95
2023/03/21 03:13:57;;;;;;;53.65;17.60;;;;;;;;;;6372612;22;20006;-94
2023/03/21 03:16:35;;;;;;;56.90;16.73;;;;;;;;;;6373018;22;20040;-95
2023/03/21 03:19:05;;;;;;;48.92;14.63;;;;;;;;;;6372758;22;20033;-94
2023/03/21 03:21:49;;;;;;;54.95;18.23;;;;;;;;;;6372447;22;20027;-95
2023/03/21 03:24:24;;;;;;;57.38;16.52;;;;;;;;;;6372307;22;20027;-94
2023/03/21 03:27:02;;;;;;;45.15;14.57;;;;;;;;;;6373552;22;20053;-95
2023/03/21 03:29:33;;;;;;;50.00;13.93;;;;;;;;;;6374156;22;20447;-94
2023/03/21 03:32:19;;;;;;;36.38;11.57;;;;;;;;;;6372310;22;20062;-95
2023/03/21 03:34:49;;;;;;;53.45;16.35;;;;;;;;;;6372532;22;20006;-94
2023/03/21 03:37:18;;;;;;;37.97;14.73;;;;;;;;;;6373103;22;20049;-94
2023/03/21 03:40:04;;;;;;;38.28;14.15;;;;;;;;;;6375037;22;20320;-95
2023/03/21 03:42:47;;;;;;;40.55;13.13;;;;;;;;;;6373800;22;20010;-93
2023/03/21 03:45:14;;;;;;;25.88;10.65;;;;;;;;;;6372974;22;20014;-95
2023/03/21 03:47:43;;;;;;;45.17;15.25;;;;;;;;;;6347945;22;20127;-94
2023/03/21 03:50:15;;;;;;;46.78;15.43;;;;;;;;;;6374085;22;20439;-95
2023/03/21 03:52:51;;;;;;;53.45;17.13;;;;;;;;;;6373554;22;19998;-94
2023/03/21 03:55:20;;;;;;;49.55;18.40;;;;;;;;;;6375296;22;20413;-94
2023/03/21 03:57:47;;;;;;;43.88;15.85;;;;;;;;;;6374095;22;20006;-94
2023/03/21 04:00:17;;;;;;;49.40;16.45;;;;;;;;;;6374718;22;20002;-95
2023/03/21 04:02:43;;;;;;;37.55;14.25;;;;;;;;;;6373845;22;20045;-94
2023/03/21 04:05:10;;;;;;;57.40;16.45;;;;;;;;;;6347453;22;20010;-94
2023/03/21 04:07:40;;;;;;;25.00;9.30;;;;;;;;;;6373985;22;20455;-94
2023/03/21 04:10:10;;;;;;;55.13;15.98;;;;;;;;;;6348396;22;20037;-94
2023/03/21 04:12:36;;;;;;;56.55;17.42;;;;;;;;;;6374764;22;20403;-94
2023/03/21 04:15:03;;;;;;;42.35;15.02;;;;;;;;;;6349847;22;20010;-94
2023/03/21 04:17:29;;;;;;;57.28;15.98;;;;;;;;;;6347928;22;20463;-94
2023/03/21 04:19:55;;;;;;;69.88;19.70;;;;;;;;;;6349335;22;20010;-94
2023/03/21 04:22:23;;;;;;;56.47;17.17;;;;;;;;;;6376319;22;20439;-94
2023/03/21 04:24:50;;;;;;;62.53;17.88;;;;;;;;;;6349866;22;20007;-95
2023/03/21 04:27:16;;;;;;;65.32;18.75;;;;;;;;;;6376373;22;20017;-94
2023/03/21 04:29:44;;;;;;;56.95;17.52;;;;;;;;;;6375393;22;20430;-94
2023/03/21 04:32:18;;;;;;;38.10;11.43;;;;;;;;;;6375388;22;20026;-94
2023/03/21 04:34:48;;;;;;;41.88;12.75;;;;;;;;;;6375858;22;20043;-94
2023/03/21 04:37:16;;;;;;;45.38;15.40;;;;;;;;;;6352082;22;20015;-94
2023/03/21 04:39:42;;;;;;;42.17;14.63;;;;;;;;;;6377531;22;20043;-93
2023/03/21 04:42:08;;;;;;;39.92;14.63;;;;;;;;;;6377192;22;20003;-94
2023/03/21 04:44:34;;;;;;;54.97;16.17;;;;;;;;;;6379912;22;20006;-94
2023/03/21 04:47:00;;;;;;;45.08;14.88;;;;;;;;;;6379597;22;20010;-93
2023/03/21 04:49:27;;;;;;;39.40;11.27;;;;;;;;;;6350966;22;20011;-93
2023/03/21 04:51:54;;;;;;;34.17;12.27;;;;;;;;;;6376405;22;20011;-93
2023/03/21 04:54:24;;;;;;;37.40;11.82;;;;;;;;;;6376607;22;20031;-93
2023/03/21 04:56:50;;;;;;;41.53;13.02;;;;;;;;;;6351170;22;20010;-94
2023/03/21 04:59:18;;;;;;;33.13;10.40;;;;;;;;;;6385017;22;20006;-94
2023/03/21 05:01:44;;;;;;;42.38;12.70;;;;;;;;;;6379155;22;20382;-94
2023/03/21 05:04:13;;;;;;;51.70;13.35;;;;;;;;;;6349718;22;20006;-95
2023/03/21 05:06:41;;;;;;;40.47;12.80;;;;;;;;;;6375089;22;20013;-94
2023/03/21 05:09:10;;;;;;;28.45;9.45;;;;;;;;;;6377789;22;20415;-94
2023/03/21 05:11:38;;;;;;;44.17;12.95;;;;;;;;;;6379277;22;20053;-94
2023/03/21 05:14:05;;;;;;;51.20;13.68;;;;;;;;;;6379647;22;20014;-94
2023/03/21 05:16:33;;;;;;;38.15;12.57;;;;;;;;;;6380569;22;20006;-94
2023/03/21 05:19:03;;;;;;;39.67;12.48;;;;;;;;;;6384060;22;20063;-94
2023/03/21 05:21:40;;;;;;;59.28;14.95;;;;;;;;;;6361708;22;20007;-93
2023/03/21 05:24:11;;;;;;;44.15;13.25;;;;;;;;;;6387734;22;19997;-93
2023/03/21 05:26:38;;;;;;;36.75;11.43;;;;;;;;;;6388233;22;20003;-94
2023/03/21 05:29:05;;;;;;;45.33;12.65;;;;;;;;;;6360942;22;20077;-94
2023/03/21 05:31:32;;;;;;;44.20;12.07;;;;;;;;;;6386252;22;20034;-93
2023/03/21 05:33:58;;;;;;;55.40;15.52;;;;;;;;;;6383896;22;20017;-94
2023/03/21 05:36:24;;;;;;;48.83;13.18;;;;;;;;;;6356674;22;20018;-95
2023/03/21 05:39:02;;;;;;;58.78;13.43;;;;;;;;;;6357887;22;20019;-93
2023/03/21 05:41:33;;;;;;;53.08;16.17;;;;;;;;;;6353205;22;20006;-93
2023/03/21 05:43:59;;;;;;;57.10;17.27;;;;;;;;;;6378015;22;20002;-94
2023/03/21 05:46:25;;;;;;;41.47;12.98;;;;;;;;;;6351325;22;20003;-93
2023/03/21 05:48:51;;;;;;;52.55;15.93;;;;;;;;;;6351584;22;20032;-94
2023/03/21 05:51:18;;;;;;;65.20;20.23;;;;;;;;;;6350244;22;20522;-94
2023/03/21 05:53:44;;;;;;;49.88;14.15;;;;;;;;;;6351145;22;20524;-95
2023/03/21 05:56:10;;;;;;;40.70;11.85;;;;;;;;;;6350581;22;20011;-94
2023/03/21 05:58:36;;;;;;;57.80;14.90;;;;;;;;;;6350451;22;20029;-94
2023/03/21 06:01:03;;;;;;;53.75;13.32;;;;;;;;;;6351205;22;19998;-95
2023/03/21 06:03:29;;;;;;;44.97;12.98;;;;;;;;;;6351005;22;20003;-94
2023/03/21 06:05:55;;;;;;;57.53;13.85;;;;;;;;;;6350880;22;20093;-96
2023/03/21 06:08:21;;;;;;;46.67;14.15;;;;;;;;;;6351691;22;20006;-96
2023/03/21 06:10:47;;;;;;;34.67;10.95;;;;;;;;;;6350975;22;20017;-95
2023/03/21 06:13:14;;;;;;;43.50;12.85;;;;;;;;;;6351645;22;20007;-96
2023/03/21 06:15:43;;;;;;;32.20;10.13;;;;;;;;;;6350280;22;20010;-96
2023/03/21 06:18:10;;;;;;;43.85;11.40;;;;;;;;;;6351741;22;20022;-95
2023/03/21 06:20:36;;;;;;;31.90;10.05;;;;;;;;;;6350801;22;20033;-96
2023/03/21 06:23:02;;;;;;;17.27;7.22;;;;;;;;;;6352541;22;20066;-96
2023/03/21 06:25:28;;;;;;;34.25;9.98;;;;;;;;;;6355193;22;19994;-95
2023/03/21 06:27:54;;;;;;;36.03;11.43;;;;;;;;;;6356754;22;20021;-95
2023/03/21 06:30:20;;;;;;;33.67;11.15;;;;;;;;;;6396197;22;20010;-96
2023/03/21 06:32:46;;;;;;;38.78;11.65;;;;;;;;;;6370339;22;19997;-96
2023/03/21 06:35:12;;;;;;;13.48;5.25;;;;;;;;;;6370400;22;19990;-96
2023/03/21 06:37:41;;;;;;;32.50;9.63;;;;;;;;;;6370897;22;20025;-96
2023/03/21 06:40:08;;;;;;;32.88;8.77;;;;;;;;;;6367578;22;20022;-96
2023/03/21 06:42:34;;;;;;;37.08;10.32;;;;;;;;;;6360829;22;20006;-96
2023/03/21 06:45:02;;;;;;;35.92;11.85;;;;;;;;;;6385904;22;20002;-96
2023/03/21 06:47:29;;;;;;;40.63;13.50;;;;;;;;;;6379397;22;20002;-96
2023/03/21 06:49:56;;;;;;;30.20;10.00;;;;;;;;;;6351398;22;20012;-96
2023/03/21 06:52:23;;;;;;;37.25;12.50;;;;;;;;;;6350094;22;20070;-96
2023/03/21 06:54:50;;;;;;;30.80;9.95;;;;;;;;;;6375209;22;20089;-96
2023/03/21 06:57:16;;;;;;;35.40;11.95;;;;;;;;;;6349936;22;20018;-96
2023/03/21 06:59:42;;;;;;;36.60;12.45;;;;;;;;;;6348750;22;20056;-96
2023/03/21 07:02:11;;;;;;;32.10;9.85;;;;;;;;;;6347799;22;20033;-96
2023/03/21 07:04:38;;;;;;;43.78;13.48;;;;;;;;;;6348953;22;20009;-96
2023/03/21 07:07:05;;;;;;;26.73;9.75;;;;;;;;;;6347967;22;20026;-96
2023/03/21 07:09:38;;;;;;;34.97;10.15;;;;;;;;;;6374872;22;20010;-96
2023/03/21 07:12:04;;;;;;;35.17;12.38;;;;;;;;;;6350261;22;20021;-96
2023/03/21 07:14:33;;;;;;;41.50;11.43;;;;;;;;;;6348460;22;20014;-96
2023/03/21 07:17:00;;;;;;;30.40;11.32;;;;;;;;;;6349260;22;20501;-96
2023/03/21 07:19:26;;;;;;;22.92;8.38;;;;;;;;;;6374639;22;20009;-96
2023/03/21 07:21:52;;;;;;;20.83;7.95;;;;;;;;;;6374291;22;20022;-96
2023/03/21 07:24:18;;;;;;;24.10;9.32;;;;;;;;;;6347973;22;20002;-96
2023/03/21 07:26:48;;;;;;;21.10;9.27;;;;;;;;;;6348351;22;20018;-96
2023/03/21 07:29:22;;;;;;;27.33;10.18;;;;;;;;;;6349112;22;20495;-96
2023/03/21 07:31:49;;;;;;;19.08;6.85;;;;;;;;;;6348251;22;20097;-96
2023/03/21 07:34:16;;;;;;;29.80;9.07;;;;;;;;;;6348458;22;20014;-96
2023/03/21 07:36:44;;;;;;;27.67;10.77;;;;;;;;;;6375532;22;20021;-96
2023/03/21 07:39:19;;;;;;;34.22;10.55;;;;;;;;;;6348888;22;20022;-96
2023/03/21 07:41:45;;;;;;;28.48;9.30;;;;;;;;;;6353351;22;20017;-96
2023/03/21 07:44:13;;;;;;;22.58;8.73;;;;;;;;;;6353298;22;20010;-96
2023/03/21 07:46:39;;;;;;;26.33;10.25;;;;;;;;;;6379368;22;20230;-96
2023/03/21 07:49:05;;;;;;;15.15;7.05;;;;;;;;;;6352443;22;20017;-96
2023/03/21 07:51:31;;;;;;;14.02;6.70;;;;;;;;;;6380231;22;20010;-96
2023/03/21 07:53:57;;;;;;;14.10;7.13;;;;;;;;;;6353605;22;20035;-96
2023/03/21 07:56:24;;;;;;;20.05;7.72;;;;;;;;;;6352983;22;20339;-96
2023/03/21 07:58:50;;;;;;;24.13;9.10;;;;;;;;;;6353618;22;20002;-96
2023/03/21 08:01:16;;;;;;;18.92;6.60;;;;;;;;;;6353813;22;19998;-96
2023/03/21 08:03:42;;;;;;;28.73;7.95;;;;;;;;;;6353422;22;20006;-96
2023/03/21 08:06:09;;;;;;;12.75;5.07;;;;;;;;;;6354081;22;20013;-96
2023/03/21 08:08:35;;;;;;;22.00;8.93;;;;;;;;;;6353005;22;20002;-96
2023/03/21 08:11:01;;;;;;;16.67;7.07;;;;;;;;;;6381859;22;20001;-96
2023/03/21 08:13:27;;;;;;;12.73;5.05;;;;;;;;;;6381431;22;20017;-96
2023/03/21 08:15:53;;;;;;;14.73;5.20;;;;;;;;;;6354742;22;20435;-96
2023/03/21 08:18:19;;;;;;;17.65;6.15;;;;;;;;;;6380073;22;20002;-96
2023/03/21 08:20:50;;;;;;;14.35;5.45;;;;;;;;;;6409510;22;20027;-96
2023/03/21 08:23:16;;;;;;;6.72;3.25;;;;;;;;;;6382763;22;20002;-96
2023/03/21 08:25:42;;;;;;;13.13;5.88;;;;;;;;;;6356688;22;20037;-96
2023/03/21 08:28:09;;;;;;;14.95;6.20;;;;;;;;;;6356716;22;20017;-96
2023/03/21 08:30:37;;;;;;;16.45;6.30;;;;;;;;;;6384282;22;20515;-96
2023/03/21 08:33:07;;;;;;;20.42;8.23;;;;;;;;;;6384350;22;20041;-96
2023/03/21 08:35:36;;;;;;;12.00;5.45;;;;;;;;;;6354654;22;20006;-96
2023/03/21 08:38:12;;;;;;;10.38;5.80;;;;;;;;;;6351307;22;20014;-96
2023/03/21 08:40:48;;;;;;;14.20;6.68;;;;;;;;;;6347352;22;20029;-96
2023/03/21 08:43:18;;;;;;;9.10;4.53;;;;;;;;;;6370474;22;20018;-96
2023/03/21 08:45:44;;;;;;;12.55;5.00;;;;;;;;;;6371174;22;20010;-96
2023/03/21 08:48:18;;;;;;;13.18;5.75;;;;;;;;;;6372576;22;20416;-96
2023/03/21 08:50:44;;;;;;;10.50;5.15;;;;;;;;;;6374862;22;20006;-95
2023/03/21 08:53:11;;;;;;;15.07;5.97;;;;;;;;;;6376267;22;20021;-96
2023/03/21 08:55:37;;;;;;;11.60;4.85;;;;;;;;;;6375196;22;20431;-96
2023/03/21 08:58:03;;;;;;;18.30;5.82;;;;;;;;;;6376737;22;20007;-95
2023/03/21 09:00:48;;;;;;;13.15;4.55;;;;;;;;;;6346916;22;20002;-95
2023/03/21 09:03:18;;;;;;;8.63;3.53;;;;;;;;;;6372735;22;20441;-96
2023/03/21 09:05:46;;;;;;;11.98;4.30;;;;;;;;;;6347611;22;20089;-96
2023/03/21 09:08:16;;;;;;;12.50;4.68;;;;;;;;;;6375152;22;20040;-96
2023/03/21 09:10:42;;;;;;;7.10;2.30;;;;;;;;;;6351756;22;20089;-96
2023/03/21 09:13:24;;;;;;;11.05;4.63;;;;;;;;;;6360972;22;20014;-96
2023/03/21 09:19:11;;;;;;;7.97;3.78;;;;;;;;;;6312814;22;20343;-88
2023/03/21 09:21:38;;;;;;;14.63;5.70;;;;;;;;;;6256909;22;20007;-88
2023/03/21 09:24:05;;;;;;;12.43;3.67;;;;;;;;;;6283756;22;20007;-88
2023/03/21 09:26:50;;;;;;;24.50;7.90;;;;;;;;;;6309930;22;20038;-89
2023/03/21 09:29:22;;;;;;;17.48;6.05;;;;;;;;;;6283517;22;20008;-88
2023/03/21 09:31:48;;;;;;;14.75;5.65;;;;;;;;;;6277853;22;20018;-88
2023/03/21 09:34:17;;;;;;;19.92;8.75;;;;;;;;;;6252779;22;20037;-88
2023/03/21 09:36:43;;;;;;;22.27;8.43;;;;;;;;;;6253533;22;20033;-88
2023/03/21 09:39:12;;;;;;;21.65;8.48;;;;;;;;;;6254100;22;20010;-88
2023/03/21 09:41:44;;;;;;;27.23;10.23;;;;;;;;;;6278543;22;19999;-88
2023/03/21 09:44:13;;;;;;;19.58;6.53;;;;;;;;;;6296159;22;20026;-88
2023/03/21 09:46:49;;;;;;;18.38;8.10;;;;;;;;;;6311231;22;20018;-88
2023/03/21 09:49:21;;;;;;;26.65;10.13;;;;;;;;;;6311592;22;20041;-88
2023/03/21 09:51:52;;;;;;;32.92;10.90;;;;;;;;;;6313051;22;20007;-89
2023/03/21 09:54:22;;;;;;;24.85;8.68;;;;;;;;;;6311409;22;20458;-87
2023/03/21 09:56:49;;;;;;;26.08;10.55;;;;;;;;;;6309627;22;20464;-88
2023/03/21 09:59:26;;;;;;;33.25;11.05;;;;;;;;;;6310091;22;20019;-88
2023/03/21 10:01:53;;;;;;;35.72;11.75;;;;;;;;;;6309642;22;20326;-88
2023/03/21 10:04:21;;;;;;;17.77;8.25;;;;;;;;;;6308996;22;20006;-88
2023/03/21 10:06:54;;;;;;;28.10;10.27;;;;;;;;;;6309826;22;20424;-87
2023/03/21 10:09:22;;;;;;;21.27;7.65;;;;;;;;;;6310322;22;20015;-89
2023/03/21 10:11:53;;;;;;;22.63;10.88;;;;;;;;;;6311046;22;20006;-88
2023/03/21 10:14:25;;;;;;;29.85;10.27;;;;;;;;;;6337409;22;20021;-88
2023/03/21 10:16:55;;;;;;;38.50;13.65;;;;;;;;;;6310362;22;20037;-88
2023/03/21 10:19:28;;;;;;;38.08;14.40;;;;;;;;;;6323664;22;20038;-88
2023/03/21 10:21:54;;;;;;;30.63;12.23;;;;;;;;;;6336497;22;20208;-88
2023/03/21 10:24:22;;;;;;;26.02;11.93;;;;;;;;;;6336749;22;20023;-88
2023/03/21 10:26:55;;;;;;;24.40;10.48;;;;;;;;;;6336824;22;20542;-89
2023/03/21 10:29:25;;;;;;;37.58;14.38;;;;;;;;;;6335096;22;20003;-88
2023/03/21 10:31:52;;;;;;;45.70;15.30;;;;;;;;;;6331612;22;20053;-88
2023/03/21 10:34:38;;;;;;;28.00;12.77;;;;;;;;;;6335822;22;20022;-88
2023/03/21 10:37:06;;;;;;;38.45;15.02;;;;;;;;;;6335438;22;20058;-87
2023/03/21 10:39:51;;;;;;;42.75;16.65;;;;;;;;;;6341816;22;20014;-88
2023/03/21 10:42:20;;;;;;;34.40;14.38;;;;;;;;;;6346887;22;20015;-89
2023/03/21 10:44:49;;;;;;;40.70;15.57;;;;;;;;;;6341496;22;20006;-88
2023/03/21 10:47:19;;;;;;;39.58;15.63;;;;;;;;;;6315034;22;20011;-88
2023/03/21 10:49:47;;;;;;;24.83;11.55;;;;;;;;;;6342761;22;20011;-89
2023/03/21 10:52:14;;;;;;;36.33;14.73;;;;;;;;;;6339284;22;20165;-89
2023/03/21 10:54:41;;;;;;;25.17;10.52;;;;;;;;;;6341636;22;20447;-90
2023/03/21 10:57:08;;;;;;;33.20;13.07;;;;;;;;;;6317433;22;20048;-88
2023/03/21 10:59:47;;;;;;;38.33;13.68;;;;;;;;;;6343868;22;20492;-89
2023/03/21 11:02:40;;;;;;;39.00;14.80;;;;;;;;;;6355406;22;20020;-88
2023/03/21 11:05:08;;;;;;;29.98;13.25;;;;;;;;;;6336854;22;19999;-90
2023/03/21 11:07:35;;;;;;;30.25;13.82;;;;;;;;;;6339504;22;20097;-91
2023/03/21 11:10:15;;;;;;;33.35;14.48;;;;;;;;;;6340726;22;20037;-92
2023/03/21 11:12:46;;;;;;;41.72;16.65;;;;;;;;;;6340568;22;20017;-87
2023/03/21 11:15:26;;;;;;;30.05;10.57;;;;;;;;;;6336328;22;20405;-89
2023/03/21 11:17:53;;;;;;;28.50;11.10;;;;;;;;;;6339293;22;20082;-89
2023/03/21 11:20:22;;;;;;;29.50;13.38;;;;;;;;;;6312852;22;20026;-88
2023/03/21 11:22:54;;;;;;;26.05;9.43;;;;;;;;;;6339665;22;20009;-88
2023/03/21 11:25:45;;;;;;;24.02;9.50;;;;;;;;;;6339589;22;20025;-89
2023/03/21 11:28:20;;;;;;;22.27;10.68;;;;;;;;;;6339645;22;20006;-88
2023/03/21 11:30:54;;;;;;;22.70;10.25;;;;;;;;;;6338403;22;20063;-88
2023/03/21 11:33:26;;;;;;;26.13;10.85;;;;;;;;;;6339713;22;20021;-88
2023/03/21 11:36:07;;;;;;;22.60;9.40;;;;;;;;;;6338398;22;20497;-88
2023/03/21 11:38:38;;;;;;;27.00;10.88;;;;;;;;;;6339412;22;20384;-89
2023/03/21 11:41:07;;;;;;;26.65;11.70;;;;;;;;;;6339437;22;20517;-90
2023/03/21 11:43:40;;;;;;;24.67;9.40;;;;;;;;;;6337875;22;20031;-89
2023/03/21 11:46:09;;;;;;;27.95;10.00;;;;;;;;;;6342601;22;19999;-89
2023/03/21 11:48:47;;;;;;;28.05;10.23;;;;;;;;;;6342443;22;20007;-89
2023/03/21 11:51:32;;;;;;;20.38;9.50;;;;;;;;;;6340764;22;20007;-90
2023/03/21 11:54:18;;;;;;;20.52;10.10;;;;;;;;;;6340143;22;20346;-89
2023/03/21 11:56:50;;;;;;;28.15;9.70;;;;;;;;;;6342867;22;20009;-89
2023/03/21 11:59:16;;;;;;;24.23;10.43;;;;;;;;;;6341382;22;20003;-87
2023/03/21 12:01:48;;;;;;;26.15;10.13;;;;;;;;;;6340346;22;20110;-90
2023/03/21 12:04:50;;;;;;;34.38;9.73;;;;;;;;;;6341013;22;20003;-93
2023/03/21 12:07:35;;;;;;;21.40;9.35;;;;;;;;;;6192856;23;20008;-89
2023/03/21 12:10:16;;;;;;;23.48;10.10;;;;;;;;;;6329194;22;20007;-89
2023/03/21 12:12:55;;;;;;;16.80;7.47;;;;;;;;;;6341392;22;20011;-91
2023/03/21 12:18:53;;;;;;;13.35;7.28;;;;;;;;;;6301926;22;20033;-89
2023/03/21 12:25:21;;;;;;;23.38;9.75;;;;;;;;;;6314489;22;20010;-92
2023/03/21 12:28:15;;;;;;;;;;;;;;;;;;;;;
2023/03/21 12:30:58;;;;;;;22.25;8.10;;;;;;;;;;6306895;22;20021;-94
2023/03/21 12:33:39;;;;;;;15.77;5.60;;;;;;;;;;6338961;22;20069;-91
2023/03/21 12:36:20;;;;;;;16.20;8.13;;;;;;;;;;6338553;22;19995;-91
2023/03/21 12:39:03;;;;;;;17.80;6.63;;;;;;;;;;6338108;22;20011;-91
2023/03/21 12:41:52;;;;;;;11.18;5.97;;;;;;;;;;6335045;22;20044;-91
2023/03/21 12:44:33;;;;;;;;;;;;;;;;;;;;;
2023/03/21 12:47:47;;;;;;;;;;;;;;;;;;;;;
2023/03/21 12:50:58;;;;;;;21.95;6.57;;;;;;;;;;6339581;22;20029;-91
2023/03/21 12:53:24;;;;;;;14.88;8.10;;;;;;;;;;6331374;22;20006;-92
2023/03/21 12:56:00;;;;;;;16.30;6.10;;;;;;;;;;6338143;22;20017;-92
2023/03/21 12:58:38;;;;;;;12.00;6.60;;;;;;;;;;6338925;22;20007;-94
2023/03/21 13:01:05;;;;;;;13.77;5.15;;;;;;;;;;6337899;22;20054;-92
2023/03/21 13:03:56;;;;;;;23.40;10.05;;;;;;;;;;6340578;22;20032;-90
2023/03/21 13:06:24;;;;;;;17.85;7.47;;;;;;;;;;6338493;22;20003;-91
2023/03/21 13:08:56;;;;;;;18.05;7.72;;;;;;;;;;6340939;22;20030;-92
2023/03/21 13:11:24;;;;;;;14.20;7.18;;;;;;;;;;6338613;22;20007;-91
2023/03/21 13:14:10;;;;;;;16.75;6.28;;;;;;;;;;6339385;22;20006;-91
2023/03/21 13:17:38;;;;;;;18.65;7.53;;;;;;;;;;6340487;22;20035;-90
2023/03/21 13:23:22;;;;;;;6.82;3.85;;;;;;;;;;6346184;22;20136;-91
2023/03/21 13:25:54;;;;;;;18.40;7.75;;;;;;;;;;6345246;22;20010;-91
2023/03/21 13:28:31;;;;;;;29.45;9.55;;;;;;;;;;6345522;22;20134;-92
2023/03/21 13:31:14;;;;;;;20.80;7.10;;;;;;;;;;6343550;22;20018;-91
2023/03/21 13:33:43;;;;;;;15.88;7.65;;;;;;;;;;6340501;22;20429;-92
2023/03/21 13:36:13;;;;;;;14.45;6.07;;;;;;;;;;6317201;22;20018;-91
2023/03/21 13:38:40;;;;;;;13.50;5.63;;;;;;;;;;6344895;22;20337;-89
2023/03/21 13:41:13;;;;;;;17.23;6.00;;;;;;;;;;6340110;22;20229;-90
2023/03/21 13:43:53;;;;;;;15.25;7.22;;;;;;;;;;6337571;22;20002;-90
2023/03/21 13:46:55;;;;;;;11.23;5.25;;;;;;;;;;6344967;22;20003;-91
2023/03/21 13:49:32;;;;;;;21.70;7.53;;;;;;;;;;6353435;22;20018;-91
2023/03/21 13:52:12;;;;;;;8.98;3.80;;;;;;;;;;6344576;22;20492;-91
2023/03/21 13:54:59;;;;;;;14.50;5.30;;;;;;;;;;6345243;22;20007;-91
2023/03/21 13:57:29;;;;;;;22.27;8.77;;;;;;;;;;6340987;22;20011;-94
2023/03/21 14:00:23;;;;;;;14.50;7.22;;;;;;;;;;6341102;22;20048;-94
2023/03/21 14:03:19;;;;;;;12.63;6.72;;;;;;;;;;6194121;23;20399;-95
2023/03/21 14:05:58;;;;;;;14.48;7.25;;;;;;;;;;6331184;22;20032;-94
2023/03/21 14:08:29;;;;;;;14.73;6.43;;;;;;;;;;6339997;22;20014;-93
2023/03/21 14:10:58;;;;;;;18.08;7.90;;;;;;;;;;6318339;22;20011;-93
2023/03/21 14:19:02;;;;;;;19.45;6.35;;;;;;;;;;6315193;22;20027;-90
2023/03/21 14:21:30;;;;;;;14.88;8.13;;;;;;;;;;6277094;22;20425;-91
2023/03/21 14:24:12;;;;;;;14.52;6.72;;;;;;;;;;6258121;22;20010;-91
2023/03/21 14:26:52;;;;;;;13.18;5.82;;;;;;;;;;6284113;22;20105;-91
2023/03/21 14:29:31;;;;;;;16.40;7.25;;;;;;;;;;6282572;22;20090;-91
2023/03/21 14:31:59;;;;;;;20.33;5.82;;;;;;;;;;6282933;22;20071;-91
2023/03/21 14:34:26;;;;;;;15.55;7.45;;;;;;;;;;6281784;22;20026;-92
2023/03/21 14:36:52;;;;;;;16.00;6.38;;;;;;;;;;6283107;22;20038;-92
2023/03/21 14:39:23;;;;;;;14.77;5.22;;;;;;;;;;6256334;22;20000;-94
2023/03/21 14:42:06;;;;;;;12.55;4.57;;;;;;;;;;6283596;22;20094;-94
2023/03/21 14:44:39;;;;;;;19.25;7.80;;;;;;;;;;6284156;22;20421;-93
2023/03/21 14:47:06;;;;;;;15.77;7.60;;;;;;;;;;6310900;22;20003;-91
2023/03/21 14:49:34;;;;;;;14.88;4.68;;;;;;;;;;6309076;22;20029;-91
2023/03/21 14:52:05;;;;;;;16.33;6.15;;;;;;;;;;6312239;22;20418;-93
2023/03/21 14:54:32;;;;;;;23.63;9.40;;;;;;;;;;6313674;22;20007;-91
2023/03/21 14:57:10;;;;;;;24.30;9.15;;;;;;;;;;6315226;22;20011;-92
2023/03/21 15:02:50;;;;;;;23.17;8.23;;;;;;;;;;6159722;23;20009;-94
2023/03/21 15:06:05;;;;;;;18.52;9.02;;;;;;;;;;6094906;23;20668;-93
2023/03/21 15:08:32;;;;;;;26.38;8.38;;;;;;;;;;6257282;22;20019;-94
2023/03/21 15:10:58;;;;;;;16.63;7.97;;;;;;;;;;6231053;22;20004;-92
2023/03/21 15:16:35;;;;;;;16.17;8.18;;;;;;;;;;6233947;22;20008;-92